This is the latest recevied weather packets stored in our database for station/object HS5SQI-2. If no packets are shown the sender has not sent any weather packets the latest 10 day(s).
| Time | Temp. | Humidity | Pressure | Rain* | Wind** | Luminosity | Snow |
|---|---|---|---|---|---|---|---|
| 1778013608 | 31.67° C | 77% | 1005 hPa | - | - | 0 W/m² | - |
| 1778012986 | 30.56° C | 82% | 1005 hPa | - | - | 0 W/m² | - |
| 1778012364 | 31.11° C | 79% | 1005 hPa | - | - | 0 W/m² | - |
| 1778011742 | 31.67° C | 79% | 1005 hPa | - | - | 0 W/m² | - |
| 1778011120 | 31.67° C | 78% | 1005 hPa | - | - | 0 W/m² | - |
| 1778010498 | 31.11° C | 78% | 1005 hPa | - | - | 0 W/m² | - |
| 1778009876 | 30.56° C | 82% | 1005 hPa | - | - | 0 W/m² | - |
| 1778009254 | 31.11° C | 81% | 1005 hPa | - | - | 0 W/m² | - |
| 1778008632 | 31.67° C | 76% | 1005 hPa | - | - | 0 W/m² | - |
| 1778008010 | 31.67° C | 79% | 1005 hPa | - | - | 0 W/m² | - |
| 1778007388 | 31.67° C | 77% | 1005 hPa | - | - | 0 W/m² | - |
| 1778006765 | 31.11° C | 80% | 1005 hPa | - | - | 0 W/m² | - |
| 1778006143 | 31.67° C | 77% | 1006 hPa | - | - | 0 W/m² | - |
| 1778005521 | 32.22° C | 75% | 1006 hPa | - | - | 0 W/m² | - |
| 1778004899 | 32.22° C | 77% | 1006 hPa | - | - | 0 W/m² | - |
| 1778004277 | 31.11° C | 80% | 1006 hPa | - | - | 0 W/m² | - |
| 1778003655 | 32.22° C | 74% | 1006 hPa | - | - | 0 W/m² | - |
| 1778003033 | 32.22° C | 75% | 1006 hPa | - | - | 0 W/m² | - |
| 1778002411 | 31.11° C | 81% | 1006 hPa | - | - | 0 W/m² | - |
| 1778001789 | 32.78° C | 73% | 1006 hPa | - | - | 0 W/m² | - |
| 1778001167 | 31.67° C | 77% | 1007 hPa | - | - | 0 W/m² | - |
| 1778000545 | 31.67° C | 78% | 1007 hPa | - | - | 0 W/m² | - |
| 1777999923 | 32.78° C | 72% | 1007 hPa | - | - | 0 W/m² | - |
| 1777999301 | 33.33° C | 70% | 1007 hPa | - | - | 0 W/m² | - |
| 1777998679 | 32.78° C | 73% | 1007 hPa | - | - | 0 W/m² | - |
* Rain since midnight (hover to see other rain measurements)
** Current wind speed in m/s (hover to see current wind gust speed)